createdAt,value
2023-02-14T00:01:22.082Z,21.20
2023-02-14T00:04:08.300Z,19.10
2023-02-14T00:07:01.211Z,22.30
2023-02-14T00:09:54.141Z,20.10
2023-02-14T00:12:48.375Z,21.30
2023-02-14T00:15:39.729Z,20.30
2023-02-14T00:18:46.317Z,20.30
2023-02-14T00:21:32.393Z,18.80
2023-02-14T00:24:27.734Z,20.70
2023-02-14T00:27:20.479Z,18.90
2023-02-14T00:30:15.428Z,20.10
2023-02-14T00:33:02.120Z,22.10
2023-02-14T00:35:54.453Z,20.50
2023-02-14T00:38:47.210Z,18.30
2023-02-14T00:41:39.255Z,19.10
2023-02-14T00:44:32.436Z,18.50
2023-02-14T00:47:25.415Z,18.60
2023-02-14T00:50:18.441Z,20.80
2023-02-14T00:53:11.645Z,19.10
2023-02-14T00:56:05.071Z,17.60
2023-02-14T00:58:59.684Z,18.80
2023-02-14T01:01:52.482Z,19.90
2023-02-14T01:04:46.156Z,18.80
2023-02-14T01:07:39.128Z,16.80
2023-02-14T01:10:34.380Z,18.20
2023-02-14T01:13:27.260Z,19.70
2023-02-14T01:16:23.697Z,20.40
2023-02-14T01:19:15.467Z,20.60
2023-02-14T01:22:00.714Z,19.00
2023-02-14T01:24:53.633Z,17.50
2023-02-14T01:27:46.405Z,16.60
2023-02-14T01:30:39.134Z,20.20
2023-02-14T01:33:32.102Z,17.40
2023-02-14T01:36:26.439Z,20.60
2023-02-14T01:39:19.218Z,23.10
2023-02-14T01:42:13.384Z,18.10
2023-02-14T01:45:07.186Z,17.80
2023-02-14T01:47:59.848Z,18.30
2023-02-14T01:50:47.577Z,19.70
2023-02-14T01:53:40.930Z,18.50
2023-02-14T01:56:39.497Z,17.90
2023-02-14T01:59:37.838Z,16.60
2023-02-14T02:02:30.767Z,18.70
2023-02-14T02:05:24.620Z,16.40
2023-02-14T02:08:18.641Z,15.90
2023-02-14T02:11:02.104Z,15.90
2023-02-14T02:13:54.914Z,17.00
2023-02-14T02:17:06.435Z,14.90
2023-02-14T02:20:34.800Z,16.70
2023-02-14T02:24:05.390Z,17.00
2023-02-14T02:27:08.698Z,17.20
2023-02-14T02:30:49.044Z,15.10
2023-02-14T02:34:06.176Z,14.80
2023-02-14T02:37:14.412Z,16.80
2023-02-14T02:40:29.738Z,15.50
2023-02-14T02:43:45.799Z,15.60
2023-02-14T02:46:48.845Z,15.70
2023-02-14T02:50:04.494Z,18.20
2023-02-14T02:53:06.501Z,14.60
2023-02-14T02:56:20.697Z,15.50
2023-02-14T02:59:20.737Z,15.50
2023-02-14T03:02:17.748Z,15.20
2023-02-14T03:05:11.584Z,19.00
2023-02-14T03:08:04.585Z,14.90
2023-02-14T03:10:59.053Z,15.20
2023-02-14T03:14:08.578Z,16.40
2023-02-14T03:17:28.941Z,18.40
2023-02-14T03:20:22.358Z,16.20
2023-02-14T03:23:22.965Z,14.40
2023-02-14T03:26:19.171Z,14.90
2023-02-14T03:29:20.324Z,17.50
2023-02-14T03:32:34.519Z,14.60
2023-02-14T03:35:34.121Z,14.70
2023-02-14T03:38:15.395Z,15.40
2023-02-14T03:41:13.922Z,15.70
2023-02-14T03:44:11.692Z,15.60
2023-02-14T03:47:10.437Z,14.80
2023-02-14T03:50:08.220Z,15.70
2023-02-14T03:53:03.136Z,17.50
2023-02-14T03:55:54.455Z,18.30
2023-02-14T03:58:44.501Z,16.30
2023-02-14T04:01:36.229Z,16.40
2023-02-14T04:04:33.736Z,18.10
2023-02-14T04:07:27.066Z,17.30
2023-02-14T04:10:21.223Z,16.30
2023-02-14T04:13:13.932Z,17.60
2023-02-14T04:16:07.682Z,17.40
2023-02-14T04:19:17.842Z,15.00
2023-02-14T04:22:10.580Z,14.30
2023-02-14T04:25:05.017Z,14.50
2023-02-14T04:27:57.958Z,16.40
2023-02-14T04:30:51.867Z,19.60
2023-02-14T04:34:05.639Z,15.40
2023-02-14T04:36:58.371Z,17.30
2023-02-14T04:39:51.541Z,20.10
2023-02-14T04:42:44.379Z,17.20
2023-02-14T04:45:37.389Z,15.30
2023-02-14T04:48:28.715Z,17.10
2023-02-14T04:51:21.512Z,16.00
2023-02-14T04:54:15.053Z,14.70
2023-02-14T04:57:01.154Z,16.30
2023-02-14T04:59:54.007Z,14.00
2023-02-14T05:02:46.909Z,19.10
2023-02-14T05:05:40.053Z,16.80
2023-02-14T05:08:32.926Z,16.20
2023-02-14T05:11:26.119Z,16.80
2023-02-14T05:14:13.920Z,15.50
2023-02-14T05:17:06.812Z,16.80
2023-02-14T05:19:59.889Z,16.70
2023-02-14T05:22:52.779Z,20.90
2023-02-14T05:25:38.557Z,17.40
2023-02-14T05:28:31.693Z,19.30
2023-02-14T05:31:26.477Z,18.10
2023-02-14T05:34:21.678Z,17.20
2023-02-14T05:37:15.601Z,18.20
2023-02-14T05:40:13.577Z,21.10
2023-02-14T05:43:06.482Z,19.40
2023-02-14T05:45:59.827Z,19.40
2023-02-14T05:48:53.198Z,19.60
2023-02-14T05:51:46.110Z,20.30
2023-02-14T05:54:39.374Z,20.40
2023-02-14T05:57:32.348Z,20.10
2023-02-14T06:00:27.720Z,18.40
2023-02-14T06:03:12.909Z,18.10
2023-02-14T06:05:58.221Z,19.50
2023-02-14T06:08:51.558Z,19.80
2023-02-14T06:11:44.431Z,19.00
2023-02-14T06:14:36.265Z,18.40
2023-02-14T06:17:27.838Z,19.30
2023-02-14T06:20:21.430Z,18.80
2023-02-14T06:23:14.592Z,18.40
2023-02-14T06:26:08.074Z,18.80
2023-02-14T06:29:01.980Z,20.00
2023-02-14T06:31:55.235Z,19.60
2023-02-14T06:34:34.517Z,20.80
2023-02-14T06:37:29.637Z,20.80
2023-02-14T06:40:24.260Z,20.10
2023-02-14T06:43:17.571Z,20.30
2023-02-14T06:46:10.598Z,19.70
2023-02-14T06:49:03.557Z,21.30
2023-02-14T06:51:57.174Z,17.50
2023-02-14T06:54:50.852Z,18.20
2023-02-14T06:57:43.769Z,19.60
2023-02-14T07:00:36.833Z,23.60
2023-02-14T07:03:30.168Z,20.90
2023-02-14T07:06:24.769Z,23.50
2023-02-14T07:09:18.417Z,21.50
2023-02-14T07:12:12.317Z,25.80
2023-02-14T07:15:05.617Z,20.90
2023-02-14T07:17:58.838Z,20.40
2023-02-14T07:20:52.498Z,18.80
2023-02-14T07:23:50.197Z,24.30
2023-02-14T07:26:42.984Z,19.10
2023-02-14T07:29:37.559Z,25.30
2023-02-14T07:32:30.468Z,20.60
2023-02-14T07:35:18.186Z,22.90
2023-02-14T07:38:04.921Z,20.50
2023-02-14T07:40:50.721Z,19.70
2023-02-14T07:43:43.954Z,20.10
2023-02-14T07:46:37.511Z,21.30
2023-02-14T07:49:12.633Z,19.60
2023-02-14T07:52:06.086Z,22.10
2023-02-14T07:54:51.790Z,24.10
2023-02-14T07:57:44.875Z,23.40
2023-02-14T08:00:37.943Z,21.90
2023-02-14T08:03:30.842Z,22.90
2023-02-14T08:06:26.102Z,22.90
2023-02-14T08:09:24.829Z,20.60
2023-02-14T08:12:35.009Z,22.10
2023-02-14T08:15:45.443Z,23.40
2023-02-14T08:18:29.503Z,19.20
2023-02-14T08:21:22.783Z,23.20
2023-02-14T08:24:15.691Z,19.00
2023-02-14T08:27:08.897Z,32.90
2023-02-14T08:30:00.851Z,22.60
2023-02-14T08:32:54.597Z,22.10
2023-02-14T08:35:48.334Z,19.20
2023-02-14T08:38:41.808Z,23.20
2023-02-14T08:41:36.142Z,25.10
2023-02-14T08:44:29.321Z,24.70
2023-02-14T08:47:21.401Z,20.40
2023-02-14T08:50:17.200Z,24.60
2023-02-14T08:52:57.215Z,28.00
2023-02-14T08:55:50.274Z,21.20
2023-02-14T08:58:45.201Z,22.10
2023-02-14T09:01:38.179Z,20.50
2023-02-14T09:04:33.993Z,24.40
2023-02-14T09:07:27.099Z,24.80
2023-02-14T09:10:14.571Z,22.10
2023-02-14T09:13:07.660Z,21.60
2023-02-14T09:16:04.388Z,19.20
2023-02-14T09:18:57.869Z,20.10
2023-02-14T09:21:43.837Z,23.10
2023-02-14T09:24:38.831Z,23.60
2023-02-14T09:27:32.408Z,22.80
2023-02-14T09:30:17.423Z,21.20
2023-02-14T09:33:10.916Z,20.30
2023-02-14T09:36:12.891Z,19.80
2023-02-14T09:39:05.997Z,19.50
2023-02-14T09:42:18.701Z,22.90
2023-02-14T09:45:15.484Z,22.00
2023-02-14T09:48:07.482Z,20.50
2023-02-14T09:51:05.198Z,20.00
2023-02-14T09:54:03.811Z,22.00
2023-02-14T09:57:02.227Z,20.80
2023-02-14T09:59:59.125Z,18.40
2023-02-14T10:03:03.599Z,18.90
2023-02-14T10:05:55.574Z,21.00
2023-02-14T10:09:11.554Z,22.00
2023-02-14T10:11:51.812Z,26.20
2023-02-14T10:14:45.118Z,19.40
2023-02-14T10:17:42.308Z,18.20
2023-02-14T10:20:40.554Z,21.80
2023-02-14T10:23:37.944Z,18.10
2023-02-14T10:26:36.404Z,17.00
2023-02-14T10:29:29.730Z,19.40
2023-02-14T10:32:20.063Z,19.60
2023-02-14T10:35:24.793Z,20.10
2023-02-14T10:39:33.486Z,19.30
2023-02-14T10:41:51.508Z,17.90
2023-02-14T10:44:51.660Z,17.10
2023-02-14T10:47:53.230Z,22.20
2023-02-14T10:50:54.916Z,18.40
2023-02-14T10:53:59.821Z,17.50
2023-02-14T10:56:40.069Z,21.60
2023-02-14T10:59:36.833Z,22.10
2023-02-14T11:02:37.943Z,18.40
2023-02-14T11:05:36.000Z,24.90
2023-02-14T11:11:26.142Z,28.30
2023-02-14T11:14:26.116Z,19.20
2023-02-14T11:17:31.064Z,19.00
2023-02-14T11:20:30.643Z,14.60
2023-02-14T11:23:25.488Z,15.70
2023-02-14T11:26:26.580Z,16.20
2023-02-14T11:29:26.471Z,16.80
2023-02-14T11:32:24.317Z,17.90
2023-02-14T11:35:21.383Z,17.70
2023-02-14T11:38:35.012Z,16.10
2023-02-14T11:41:27.787Z,16.90
2023-02-14T11:44:22.970Z,17.00
2023-02-14T11:47:27.440Z,16.80
2023-02-14T11:50:26.123Z,14.50
2023-02-14T11:53:14.627Z,16.10
2023-02-14T11:56:09.356Z,16.80
2023-02-14T11:59:06.101Z,16.40
2023-02-14T12:01:49.515Z,14.70
2023-02-14T12:04:46.802Z,16.40
2023-02-14T12:07:44.966Z,15.50
2023-02-14T12:10:39.476Z,16.00
2023-02-14T12:13:34.251Z,16.60
2023-02-14T12:16:33.073Z,16.00
2023-02-14T12:19:34.573Z,16.00
2023-02-14T12:22:24.434Z,17.10
2023-02-14T12:25:21.616Z,20.40
2023-02-14T12:28:21.198Z,22.00
2023-02-14T12:30:56.521Z,18.60
2023-02-14T12:33:39.914Z,14.70
2023-02-14T12:36:49.455Z,14.70
2023-02-14T12:40:00.150Z,13.70
2023-02-14T12:43:06.533Z,18.50
2023-02-14T12:46:20.222Z,16.20
2023-02-14T12:49:29.442Z,16.90
2023-02-14T12:52:40.578Z,16.60
2023-02-14T12:55:47.475Z,16.40
2023-02-14T12:58:56.973Z,18.10
2023-02-14T13:02:15.830Z,14.20
2023-02-14T13:05:21.314Z,15.60
2023-02-14T13:08:24.926Z,13.50
2023-02-14T13:11:26.631Z,14.30
2023-02-14T13:14:20.531Z,14.90
2023-02-14T13:17:25.486Z,16.40
2023-02-14T13:20:43.122Z,17.20
2023-02-14T13:26:36.970Z,15.00
2023-02-14T13:29:23.680Z,15.60
2023-02-14T13:32:03.477Z,17.90
2023-02-14T13:34:57.732Z,20.00
2023-02-14T13:37:49.423Z,19.00
2023-02-14T13:40:43.525Z,14.60
2023-02-14T13:43:52.784Z,16.60
2023-02-14T13:46:53.884Z,18.30
2023-02-14T13:49:50.926Z,17.30
2023-02-14T13:52:48.843Z,15.20
2023-02-14T13:58:25.873Z,18.80
2023-02-14T14:01:33.568Z,15.00
2023-02-14T14:04:39.904Z,16.00
2023-02-14T14:07:30.241Z,16.90
2023-02-14T14:10:46.461Z,17.10
2023-02-14T14:14:06.904Z,17.60
2023-02-14T14:17:00.283Z,19.90
2023-02-14T14:19:58.052Z,18.80
2023-02-14T14:22:52.837Z,19.40
2023-02-14T14:25:46.320Z,17.20
2023-02-14T14:28:39.164Z,19.90
2023-02-14T14:31:32.758Z,20.20
2023-02-14T14:34:24.731Z,17.40
2023-02-14T14:37:21.696Z,22.80
2023-02-14T14:40:28.823Z,19.90
2023-02-14T14:43:20.577Z,21.10
2023-02-14T14:46:15.937Z,23.30
2023-02-14T14:49:10.540Z,23.40
2023-02-14T14:51:56.841Z,21.60
2023-02-14T14:54:43.619Z,23.80
2023-02-14T14:57:30.216Z,24.20
2023-02-14T15:00:29.663Z,18.70
2023-02-14T15:03:26.042Z,24.70
2023-02-14T15:06:22.621Z,21.40
2023-02-14T15:09:23.791Z,28.20
2023-02-14T15:12:35.146Z,37.10
2023-02-14T15:15:27.968Z,51.40
2023-02-14T15:18:22.000Z,43.20
2023-02-14T15:21:07.141Z,45.40
2023-02-14T15:23:45.229Z,44.40
2023-02-14T15:26:28.773Z,34.80
2023-02-14T15:29:28.303Z,30.50
2023-02-14T15:32:22.144Z,30.30
2023-02-14T15:35:13.850Z,29.30
2023-02-14T15:38:01.427Z,32.50
2023-02-14T15:40:55.898Z,26.40
2023-02-14T15:43:53.886Z,27.70
2023-02-14T15:46:47.457Z,27.60
2023-02-14T15:49:43.803Z,30.50
2023-02-14T15:52:35.256Z,30.10
2023-02-14T15:55:12.277Z,33.80
2023-02-14T15:57:59.255Z,32.20
2023-02-14T16:00:49.476Z,30.00
2023-02-14T16:03:49.478Z,32.20
2023-02-14T16:06:45.702Z,29.60
2023-02-14T16:09:39.674Z,28.20
2023-02-14T16:12:37.746Z,30.10
2023-02-14T16:15:24.002Z,34.50
2023-02-14T16:18:37.678Z,34.60
2023-02-14T16:21:25.878Z,31.60
2023-02-14T16:24:19.422Z,33.40
2023-02-14T16:27:07.004Z,32.40
2023-02-14T16:29:50.682Z,33.40
2023-02-14T16:32:44.824Z,33.00
2023-02-14T16:35:39.794Z,32.50
2023-02-14T16:38:25.594Z,35.10
2023-02-14T16:41:24.198Z,34.70
2023-02-14T16:44:00.233Z,35.90
2023-02-14T16:46:53.008Z,34.90
2023-02-14T16:49:39.197Z,36.40
2023-02-14T16:52:32.502Z,37.00
2023-02-14T16:55:29.000Z,33.70
2023-02-14T16:58:23.063Z,34.10
2023-02-14T17:01:15.925Z,35.70
2023-02-14T17:04:07.542Z,32.60
2023-02-14T17:07:05.841Z,34.10
2023-02-14T17:09:53.484Z,32.90
2023-02-14T17:12:43.175Z,36.40
2023-02-14T17:15:37.402Z,37.10
2023-02-14T17:18:25.200Z,40.40
2023-02-14T17:21:21.408Z,40.60
2023-02-14T17:24:14.191Z,43.70
2023-02-14T17:26:52.253Z,41.30
2023-02-14T17:29:37.428Z,42.20
2023-02-14T17:32:15.499Z,37.80
2023-02-14T17:35:03.616Z,46.00
2023-02-14T17:37:51.588Z,39.70
2023-02-14T17:40:30.471Z,40.80
2023-02-14T17:43:24.181Z,43.50
2023-02-14T17:45:58.508Z,44.40
2023-02-14T17:48:51.485Z,41.70
2023-02-14T17:51:46.134Z,47.50
2023-02-14T17:54:41.677Z,41.70
2023-02-14T17:57:36.118Z,40.40
2023-02-14T18:00:23.930Z,40.30
2023-02-14T18:03:02.085Z,38.30
2023-02-14T18:05:53.829Z,35.20
2023-02-14T18:08:42.471Z,37.70
2023-02-14T18:11:39.916Z,38.00
2023-02-14T18:14:31.601Z,35.90
2023-02-14T18:17:07.424Z,38.80
2023-02-14T18:19:46.753Z,37.70
2023-02-14T18:22:21.705Z,33.50
2023-02-14T18:24:59.611Z,36.60
2023-02-14T18:27:34.875Z,36.20
2023-02-14T18:30:17.207Z,35.30
2023-02-14T18:32:52.930Z,35.80
2023-02-14T18:35:31.376Z,38.30
2023-02-14T18:38:15.115Z,35.50
2023-02-14T18:40:51.075Z,39.90
2023-02-14T18:43:44.682Z,35.90
2023-02-14T18:46:27.686Z,37.80
2023-02-14T18:49:20.425Z,38.90
2023-02-14T18:51:58.863Z,36.30
2023-02-14T18:54:34.584Z,36.30
2023-02-14T18:57:16.783Z,33.20
2023-02-14T19:00:02.891Z,30.90
2023-02-14T19:02:55.588Z,32.40
2023-02-14T19:05:42.268Z,30.10
2023-02-14T19:08:35.951Z,33.30
2023-02-14T19:11:19.792Z,31.30
2023-02-14T19:13:58.460Z,30.60
2023-02-14T19:16:36.840Z,34.40
2023-02-14T19:19:29.976Z,35.60
2023-02-14T19:22:16.410Z,37.00
2023-02-14T19:24:53.026Z,34.70
2023-02-14T19:27:38.406Z,36.00
2023-02-14T19:30:31.052Z,39.90
2023-02-14T19:33:08.279Z,41.70
2023-02-14T19:35:43.869Z,39.20
2023-02-14T19:38:20.534Z,38.20
2023-02-14T19:40:58.137Z,40.70
2023-02-14T19:43:31.259Z,36.60
2023-02-14T19:46:08.909Z,33.60
2023-02-14T19:48:47.798Z,35.20
2023-02-14T19:51:36.061Z,32.60
2023-02-14T19:54:12.814Z,33.20
2023-02-14T19:56:57.498Z,30.60
2023-02-14T19:59:40.945Z,32.70
2023-02-14T20:02:18.534Z,31.30
2023-02-14T20:04:58.934Z,31.90
2023-02-14T20:07:34.525Z,34.60
2023-02-14T20:10:27.307Z,33.90
2023-02-14T20:13:10.995Z,40.10
2023-02-14T20:16:03.765Z,36.10
2023-02-14T20:18:39.385Z,35.50
2023-02-14T20:21:25.519Z,34.00
2023-02-14T20:24:01.960Z,31.80
2023-02-14T20:26:45.713Z,33.10
2023-02-14T20:29:33.273Z,33.50
2023-02-14T20:32:06.176Z,32.80
2023-02-14T20:34:44.765Z,30.20
2023-02-14T20:37:37.730Z,32.20
2023-02-14T20:40:16.334Z,29.10
2023-02-14T20:42:53.537Z,33.40
2023-02-14T20:45:46.395Z,31.40
2023-02-14T20:48:22.189Z,34.00
2023-02-14T20:50:59.628Z,32.00
2023-02-14T20:53:40.545Z,30.70
2023-02-14T20:56:23.541Z,28.50
2023-02-14T20:59:02.697Z,31.20
2023-02-14T21:01:36.050Z,33.50
2023-02-14T21:04:21.361Z,32.90
2023-02-14T21:06:54.146Z,32.50
2023-02-14T21:09:29.669Z,34.40
2023-02-14T21:12:12.438Z,36.20
2023-02-14T21:14:48.175Z,41.20
2023-02-14T21:17:39.460Z,40.70
2023-02-14T21:20:15.386Z,39.90
2023-02-14T21:22:50.987Z,36.90
2023-02-14T21:25:43.786Z,38.40
2023-02-14T21:28:21.913Z,38.30
2023-02-14T21:31:18.102Z,42.00
2023-02-14T21:34:11.178Z,44.60
2023-02-14T21:37:04.070Z,37.80
2023-02-14T21:39:39.833Z,37.80
2023-02-14T21:42:34.250Z,43.60
2023-02-14T21:45:34.919Z,54.50
2023-02-14T21:48:44.153Z,46.80
2023-02-14T21:51:31.716Z,54.70
2023-02-14T21:54:24.568Z,42.30
2023-02-14T21:57:09.842Z,41.20
2023-02-14T21:59:55.436Z,47.50
2023-02-14T22:02:50.380Z,44.30
2023-02-14T22:05:43.165Z,41.00
2023-02-14T22:08:37.704Z,35.10
2023-02-14T22:11:31.646Z,36.30
2023-02-14T22:14:25.550Z,30.70
2023-02-14T22:17:18.462Z,34.10
2023-02-14T22:20:13.030Z,34.20
2023-02-14T22:23:05.812Z,33.30
2023-02-14T22:25:58.595Z,31.90
2023-02-14T22:28:46.032Z,36.00
2023-02-14T22:31:40.918Z,36.70
2023-02-14T22:34:33.970Z,39.40
2023-02-14T22:37:26.806Z,37.40
2023-02-14T22:40:19.749Z,34.90
2023-02-14T22:43:12.486Z,38.60
2023-02-14T22:46:07.199Z,34.70
2023-02-14T22:49:00.001Z,37.40
2023-02-14T22:51:51.970Z,36.70
2023-02-14T22:54:37.920Z,36.40
2023-02-14T22:57:24.537Z,40.20
2023-02-14T23:00:11.816Z,37.20
2023-02-14T23:03:04.750Z,33.40
2023-02-14T23:05:59.163Z,38.00
2023-02-14T23:08:52.663Z,64.50
2023-02-14T23:11:46.943Z,65.00
2023-02-14T23:14:56.234Z,71.10
2023-02-14T23:18:06.261Z,38.40
2023-02-14T23:21:16.330Z,35.30
2023-02-14T23:24:08.886Z,35.20
2023-02-14T23:27:02.611Z,32.90
2023-02-14T23:29:55.437Z,40.40
2023-02-14T23:32:48.328Z,39.10
2023-02-14T23:35:36.956Z,29.60
2023-02-14T23:38:29.706Z,31.00
2023-02-14T23:41:39.673Z,32.30
2023-02-14T23:44:33.434Z,30.70
2023-02-14T23:47:26.156Z,28.30
2023-02-14T23:50:19.327Z,34.10
2023-02-14T23:53:12.101Z,40.70
2023-02-14T23:55:44.784Z,41.50
2023-02-14T23:58:37.692Z,41.50
